sensor_id;sensor_type;location;lat;lon;timestamp;P1;durP1;ratioP1;P2;durP2;ratioP2
43793;SDS011;29414;44.798;20.366;2023-06-22T00:01:21;17.77;;;16.00;;
43793;SDS011;29414;44.798;20.366;2023-06-22T00:05:22;17.17;;;15.52;;
43793;SDS011;29414;44.798;20.366;2023-06-22T00:09:22;17.23;;;15.82;;
43793;SDS011;29414;44.798;20.366;2023-06-22T00:13:23;17.65;;;15.85;;
43793;SDS011;29414;44.798;20.366;2023-06-22T00:17:23;19.98;;;18.08;;
43793;SDS011;29414;44.798;20.366;2023-06-22T00:21:23;27.02;;;24.45;;
43793;SDS011;29414;44.798;20.366;2023-06-22T00:25:23;20.73;;;18.83;;
43793;SDS011;29414;44.798;20.366;2023-06-22T00:29:24;19.05;;;17.10;;
43793;SDS011;29414;44.798;20.366;2023-06-22T00:33:24;20.17;;;18.33;;
43793;SDS011;29414;44.798;20.366;2023-06-22T00:37:24;21.92;;;18.83;;
43793;SDS011;29414;44.798;20.366;2023-06-22T00:41:25;19.63;;;17.05;;
43793;SDS011;29414;44.798;20.366;2023-06-22T00:45:28;17.83;;;15.70;;
43793;SDS011;29414;44.798;20.366;2023-06-22T00:49:29;18.63;;;16.65;;
43793;SDS011;29414;44.798;20.366;2023-06-22T00:53:29;16.52;;;14.93;;
43793;SDS011;29414;44.798;20.366;2023-06-22T00:57:30;15.80;;;14.45;;
43793;SDS011;29414;44.798;20.366;2023-06-22T01:01:30;16.67;;;15.38;;
43793;SDS011;29414;44.798;20.366;2023-06-22T01:05:30;17.83;;;16.13;;
43793;SDS011;29414;44.798;20.366;2023-06-22T01:09:32;18.13;;;16.25;;
43793;SDS011;29414;44.798;20.366;2023-06-22T01:17:53;19.33;;;17.33;;
43793;SDS011;29414;44.798;20.366;2023-06-22T01:21:53;20.73;;;18.75;;
43793;SDS011;29414;44.798;20.366;2023-06-22T01:30:15;23.13;;;20.77;;
43793;SDS011;29414;44.798;20.366;2023-06-22T01:34:16;24.73;;;22.17;;
43793;SDS011;29414;44.798;20.366;2023-06-22T01:38:17;24.80;;;22.55;;
43793;SDS011;29414;44.798;20.366;2023-06-22T01:42:18;23.85;;;21.52;;
43793;SDS011;29414;44.798;20.366;2023-06-22T01:46:18;26.75;;;24.05;;
43793;SDS011;29414;44.798;20.366;2023-06-22T01:50:21;25.23;;;23.02;;
43793;SDS011;29414;44.798;20.366;2023-06-22T01:54:21;30.00;;;26.77;;
43793;SDS011;29414;44.798;20.366;2023-06-22T01:58:23;30.42;;;27.45;;
43793;SDS011;29414;44.798;20.366;2023-06-22T02:02:25;28.38;;;25.40;;
43793;SDS011;29414;44.798;20.366;2023-06-22T02:06:31;22.88;;;20.65;;
43793;SDS011;29414;44.798;20.366;2023-06-22T02:10:36;24.13;;;20.90;;
43793;SDS011;29414;44.798;20.366;2023-06-22T02:14:36;25.08;;;22.73;;
43793;SDS011;29414;44.798;20.366;2023-06-22T02:18:37;24.00;;;21.58;;
43793;SDS011;29414;44.798;20.366;2023-06-22T02:22:37;26.00;;;22.35;;
43793;SDS011;29414;44.798;20.366;2023-06-22T02:26:38;20.38;;;18.25;;
43793;SDS011;29414;44.798;20.366;2023-06-22T02:30:39;18.75;;;17.05;;
43793;SDS011;29414;44.798;20.366;2023-06-22T02:34:40;19.33;;;17.10;;
43793;SDS011;29414;44.798;20.366;2023-06-22T02:38:40;20.10;;;16.20;;
43793;SDS011;29414;44.798;20.366;2023-06-22T02:42:48;19.08;;;16.25;;
43793;SDS011;29414;44.798;20.366;2023-06-22T02:46:48;20.17;;;17.25;;
43793;SDS011;29414;44.798;20.366;2023-06-22T02:50:48;18.85;;;15.20;;
43793;SDS011;29414;44.798;20.366;2023-06-22T02:54:49;21.30;;;16.85;;
43793;SDS011;29414;44.798;20.366;2023-06-22T02:58:49;17.63;;;15.95;;
43793;SDS011;29414;44.798;20.366;2023-06-22T03:02:49;14.57;;;13.27;;
43793;SDS011;29414;44.798;20.366;2023-06-22T03:06:50;16.55;;;14.52;;
43793;SDS011;29414;44.798;20.366;2023-06-22T03:10:51;17.13;;;14.70;;
43793;SDS011;29414;44.798;20.366;2023-06-22T03:14:51;15.18;;;13.70;;
43793;SDS011;29414;44.798;20.366;2023-06-22T03:18:51;15.65;;;14.10;;
43793;SDS011;29414;44.798;20.366;2023-06-22T03:22:53;17.60;;;13.30;;
43793;SDS011;29414;44.798;20.366;2023-06-22T03:26:53;15.30;;;13.48;;
43793;SDS011;29414;44.798;20.366;2023-06-22T03:30:56;14.50;;;13.00;;
43793;SDS011;29414;44.798;20.366;2023-06-22T03:34:57;11.40;;;10.48;;
43793;SDS011;29414;44.798;20.366;2023-06-22T03:38:58;14.38;;;11.57;;
43793;SDS011;29414;44.798;20.366;2023-06-22T03:42:59;12.45;;;11.30;;
43793;SDS011;29414;44.798;20.366;2023-06-22T03:46:59;12.63;;;11.15;;
43793;SDS011;29414;44.798;20.366;2023-06-22T03:50:59;12.05;;;10.77;;
43793;SDS011;29414;44.798;20.366;2023-06-22T03:55:00;14.73;;;10.38;;
43793;SDS011;29414;44.798;20.366;2023-06-22T03:59:00;11.93;;;10.65;;
43793;SDS011;29414;44.798;20.366;2023-06-22T04:03:00;14.07;;;12.27;;
43793;SDS011;29414;44.798;20.366;2023-06-22T04:07:00;16.13;;;11.38;;
43793;SDS011;29414;44.798;20.366;2023-06-22T04:11:01;12.68;;;11.43;;
43793;SDS011;29414;44.798;20.366;2023-06-22T04:15:01;12.40;;;11.07;;
43793;SDS011;29414;44.798;20.366;2023-06-22T04:19:02;11.50;;;10.30;;
43793;SDS011;29414;44.798;20.366;2023-06-22T04:23:02;11.45;;;10.30;;
43793;SDS011;29414;44.798;20.366;2023-06-22T04:27:02;13.65;;;10.68;;
43793;SDS011;29414;44.798;20.366;2023-06-22T04:31:03;11.02;;;9.73;;
43793;SDS011;29414;44.798;20.366;2023-06-22T04:35:03;15.63;;;9.63;;
43793;SDS011;29414;44.798;20.366;2023-06-22T04:39:07;11.02;;;9.90;;
43793;SDS011;29414;44.798;20.366;2023-06-22T04:43:09;10.02;;;9.10;;
43793;SDS011;29414;44.798;20.366;2023-06-22T04:47:10;10.52;;;8.85;;
43793;SDS011;29414;44.798;20.366;2023-06-22T04:51:10;10.88;;;9.55;;
43793;SDS011;29414;44.798;20.366;2023-06-22T04:55:10;9.38;;;8.48;;
43793;SDS011;29414;44.798;20.366;2023-06-22T04:59:11;8.77;;;7.97;;
43793;SDS011;29414;44.798;20.366;2023-06-22T05:03:13;8.70;;;7.85;;
43793;SDS011;29414;44.798;20.366;2023-06-22T05:07:13;21.95;;;11.68;;
43793;SDS011;29414;44.798;20.366;2023-06-22T05:11:13;16.63;;;11.75;;
43793;SDS011;29414;44.798;20.366;2023-06-22T05:15:14;12.55;;;11.05;;
43793;SDS011;29414;44.798;20.366;2023-06-22T05:19:15;14.93;;;13.43;;
43793;SDS011;29414;44.798;20.366;2023-06-22T05:23:15;13.07;;;11.88;;
43793;SDS011;29414;44.798;20.366;2023-06-22T05:27:15;13.30;;;11.90;;
43793;SDS011;29414;44.798;20.366;2023-06-22T05:31:16;13.40;;;12.20;;
43793;SDS011;29414;44.798;20.366;2023-06-22T05:35:16;14.13;;;12.90;;
43793;SDS011;29414;44.798;20.366;2023-06-22T05:39:17;14.73;;;12.55;;
43793;SDS011;29414;44.798;20.366;2023-06-22T05:43:17;17.75;;;12.95;;
43793;SDS011;29414;44.798;20.366;2023-06-22T05:47:17;14.68;;;13.38;;
43793;SDS011;29414;44.798;20.366;2023-06-22T05:51:18;17.60;;;13.25;;
43793;SDS011;29414;44.798;20.366;2023-06-22T05:55:18;14.80;;;13.30;;
43793;SDS011;29414;44.798;20.366;2023-06-22T05:59:19;14.05;;;10.82;;
43793;SDS011;29414;44.798;20.366;2023-06-22T06:03:19;17.00;;;10.27;;
43793;SDS011;29414;44.798;20.366;2023-06-22T06:07:19;10.70;;;9.70;;
43793;SDS011;29414;44.798;20.366;2023-06-22T06:11:19;10.80;;;8.85;;
43793;SDS011;29414;44.798;20.366;2023-06-22T06:15:20;10.80;;;8.63;;
43793;SDS011;29414;44.798;20.366;2023-06-22T06:19:20;9.80;;;8.55;;
43793;SDS011;29414;44.798;20.366;2023-06-22T06:23:20;13.90;;;8.98;;
43793;SDS011;29414;44.798;20.366;2023-06-22T06:27:21;9.50;;;8.60;;
43793;SDS011;29414;44.798;20.366;2023-06-22T06:31:21;21.10;;;10.52;;
43793;SDS011;29414;44.798;20.366;2023-06-22T06:35:23;10.38;;;9.50;;
43793;SDS011;29414;44.798;20.366;2023-06-22T06:39:23;11.77;;;9.48;;
43793;SDS011;29414;44.798;20.366;2023-06-22T06:43:25;11.68;;;8.55;;
43793;SDS011;29414;44.798;20.366;2023-06-22T06:47:25;22.23;;;8.38;;
43793;SDS011;29414;44.798;20.366;2023-06-22T06:51:25;23.75;;;8.65;;
43793;SDS011;29414;44.798;20.366;2023-06-22T06:55:26;15.45;;;8.85;;
43793;SDS011;29414;44.798;20.366;2023-06-22T06:59:26;18.38;;;7.95;;
43793;SDS011;29414;44.798;20.366;2023-06-22T07:03:26;13.45;;;8.18;;
43793;SDS011;29414;44.798;20.366;2023-06-22T07:07:27;9.27;;;8.32;;
43793;SDS011;29414;44.798;20.366;2023-06-22T07:11:27;12.27;;;7.28;;
43793;SDS011;29414;44.798;20.366;2023-06-22T07:15:27;12.75;;;7.78;;
43793;SDS011;29414;44.798;20.366;2023-06-22T07:19:28;18.13;;;6.85;;
43793;SDS011;29414;44.798;20.366;2023-06-22T07:23:28;8.73;;;6.72;;
43793;SDS011;29414;44.798;20.366;2023-06-22T07:27:28;8.68;;;6.65;;
43793;SDS011;29414;44.798;20.366;2023-06-22T07:31:35;7.63;;;6.15;;
43793;SDS011;29414;44.798;20.366;2023-06-22T07:35:35;11.95;;;6.43;;
43793;SDS011;29414;44.798;20.366;2023-06-22T07:39:35;8.10;;;6.80;;
43793;SDS011;29414;44.798;20.366;2023-06-22T07:43:37;6.90;;;6.30;;
43793;SDS011;29414;44.798;20.366;2023-06-22T07:47:38;6.53;;;5.95;;
43793;SDS011;29414;44.798;20.366;2023-06-22T07:51:38;7.22;;;6.63;;
43793;SDS011;29414;44.798;20.366;2023-06-22T07:55:38;6.20;;;5.60;;
43793;SDS011;29414;44.798;20.366;2023-06-22T07:59:38;7.78;;;6.57;;
43793;SDS011;29414;44.798;20.366;2023-06-22T08:03:39;6.43;;;5.55;;
43793;SDS011;29414;44.798;20.366;2023-06-22T08:07:39;11.27;;;7.25;;
43793;SDS011;29414;44.798;20.366;2023-06-22T08:11:42;23.58;;;8.32;;
43793;SDS011;29414;44.798;20.366;2023-06-22T08:15:42;14.50;;;7.63;;
43793;SDS011;29414;44.798;20.366;2023-06-22T08:19:42;8.85;;;6.20;;
43793;SDS011;29414;44.798;20.366;2023-06-22T08:23:43;10.53;;;6.43;;
43793;SDS011;29414;44.798;20.366;2023-06-22T08:27:46;10.55;;;6.53;;
43793;SDS011;29414;44.798;20.366;2023-06-22T08:31:48;12.02;;;6.35;;
43793;SDS011;29414;44.798;20.366;2023-06-22T08:35:48;6.38;;;5.35;;
43793;SDS011;29414;44.798;20.366;2023-06-22T08:39:48;7.80;;;5.47;;
43793;SDS011;29414;44.798;20.366;2023-06-22T08:43:49;7.28;;;5.57;;
43793;SDS011;29414;44.798;20.366;2023-06-22T08:47:50;13.18;;;5.93;;
43793;SDS011;29414;44.798;20.366;2023-06-22T08:51:50;5.73;;;4.77;;
43793;SDS011;29414;44.798;20.366;2023-06-22T08:55:53;10.90;;;6.05;;
43793;SDS011;29414;44.798;20.366;2023-06-22T08:59:53;8.82;;;4.90;;
43793;SDS011;29414;44.798;20.366;2023-06-22T09:03:58;14.02;;;4.97;;
43793;SDS011;29414;44.798;20.366;2023-06-22T09:07:59;6.38;;;5.22;;
43793;SDS011;29414;44.798;20.366;2023-06-22T09:12:00;10.57;;;5.53;;
43793;SDS011;29414;44.798;20.366;2023-06-22T09:16:00;8.77;;;5.03;;
43793;SDS011;29414;44.798;20.366;2023-06-22T09:20:00;6.85;;;5.32;;
43793;SDS011;29414;44.798;20.366;2023-06-22T09:24:01;11.77;;;5.75;;
43793;SDS011;29414;44.798;20.366;2023-06-22T09:28:01;8.32;;;5.63;;
43793;SDS011;29414;44.798;20.366;2023-06-22T09:32:01;6.35;;;5.22;;
43793;SDS011;29414;44.798;20.366;2023-06-22T09:36:01;6.72;;;5.53;;
43793;SDS011;29414;44.798;20.366;2023-06-22T09:40:02;9.68;;;5.18;;
43793;SDS011;29414;44.798;20.366;2023-06-22T09:44:08;7.47;;;5.38;;
43793;SDS011;29414;44.798;20.366;2023-06-22T09:48:08;5.53;;;5.07;;
43793;SDS011;29414;44.798;20.366;2023-06-22T09:52:09;8.38;;;5.25;;
43793;SDS011;29414;44.798;20.366;2023-06-22T09:56:11;8.10;;;5.10;;
43793;SDS011;29414;44.798;20.366;2023-06-22T10:00:15;5.68;;;5.05;;
43793;SDS011;29414;44.798;20.366;2023-06-22T10:04:16;7.85;;;5.30;;
43793;SDS011;29414;44.798;20.366;2023-06-22T10:08:16;5.30;;;4.90;;
43793;SDS011;29414;44.798;20.366;2023-06-22T10:12:17;5.80;;;4.63;;
43793;SDS011;29414;44.798;20.366;2023-06-22T10:16:17;5.23;;;4.70;;
43793;SDS011;29414;44.798;20.366;2023-06-22T10:20:17;6.23;;;5.27;;
43793;SDS011;29414;44.798;20.366;2023-06-22T10:24:18;40.47;;;8.18;;
43793;SDS011;29414;44.798;20.366;2023-06-22T10:28:18;7.10;;;5.68;;
43793;SDS011;29414;44.798;20.366;2023-06-22T10:32:19;6.88;;;5.03;;
43793;SDS011;29414;44.798;20.366;2023-06-22T10:36:19;8.70;;;4.90;;
43793;SDS011;29414;44.798;20.366;2023-06-22T10:40:19;40.97;;;8.23;;
43793;SDS011;29414;44.798;20.366;2023-06-22T10:44:20;13.00;;;5.63;;
43793;SDS011;29414;44.798;20.366;2023-06-22T10:48:20;5.25;;;4.78;;
43793;SDS011;29414;44.798;20.366;2023-06-22T10:52:20;7.27;;;4.77;;
43793;SDS011;29414;44.798;20.366;2023-06-22T10:56:21;6.88;;;4.78;;
43793;SDS011;29414;44.798;20.366;2023-06-22T11:00:21;31.30;;;7.00;;
43793;SDS011;29414;44.798;20.366;2023-06-22T11:04:22;11.98;;;5.55;;
43793;SDS011;29414;44.798;20.366;2023-06-22T11:08:22;9.15;;;5.25;;
43793;SDS011;29414;44.798;20.366;2023-06-22T11:12:22;18.02;;;4.93;;
43793;SDS011;29414;44.798;20.366;2023-06-22T11:16:22;22.90;;;6.10;;
43793;SDS011;29414;44.798;20.366;2023-06-22T11:20:23;4.80;;;4.40;;
43793;SDS011;29414;44.798;20.366;2023-06-22T11:24:23;8.37;;;4.60;;
43793;SDS011;29414;44.798;20.366;2023-06-22T11:28:23;5.13;;;4.63;;
43793;SDS011;29414;44.798;20.366;2023-06-22T11:32:23;11.33;;;5.13;;
43793;SDS011;29414;44.798;20.366;2023-06-22T11:36:24;7.30;;;4.60;;
43793;SDS011;29414;44.798;20.366;2023-06-22T11:40:25;7.53;;;5.10;;
43793;SDS011;29414;44.798;20.366;2023-06-22T11:44:25;6.60;;;4.95;;
43793;SDS011;29414;44.798;20.366;2023-06-22T11:48:25;6.90;;;5.27;;
43793;SDS011;29414;44.798;20.366;2023-06-22T11:52:25;8.55;;;4.78;;
43793;SDS011;29414;44.798;20.366;2023-06-22T11:56:27;7.65;;;5.68;;
43793;SDS011;29414;44.798;20.366;2023-06-22T12:00:27;20.98;;;6.30;;
43793;SDS011;29414;44.798;20.366;2023-06-22T12:04:28;10.90;;;4.88;;
43793;SDS011;29414;44.798;20.366;2023-06-22T12:08:28;11.87;;;6.80;;
43793;SDS011;29414;44.798;20.366;2023-06-22T12:12:28;5.90;;;5.18;;
43793;SDS011;29414;44.798;20.366;2023-06-22T12:16:29;6.93;;;6.22;;
43793;SDS011;29414;44.798;20.366;2023-06-22T12:20:29;14.15;;;5.70;;
43793;SDS011;29414;44.798;20.366;2023-06-22T12:24:29;5.40;;;4.90;;
43793;SDS011;29414;44.798;20.366;2023-06-22T12:28:30;5.80;;;5.22;;
43793;SDS011;29414;44.798;20.366;2023-06-22T12:32:30;12.55;;;5.60;;
43793;SDS011;29414;44.798;20.366;2023-06-22T12:36:30;14.35;;;5.75;;
43793;SDS011;29414;44.798;20.366;2023-06-22T12:40:30;8.27;;;5.70;;
43793;SDS011;29414;44.798;20.366;2023-06-22T12:44:31;10.43;;;5.63;;
43793;SDS011;29414;44.798;20.366;2023-06-22T12:48:31;14.93;;;5.22;;
43793;SDS011;29414;44.798;20.366;2023-06-22T12:52:31;36.77;;;8.20;;
43793;SDS011;29414;44.798;20.366;2023-06-22T12:56:35;26.50;;;6.80;;
43793;SDS011;29414;44.798;20.366;2023-06-22T13:00:35;5.50;;;5.03;;
43793;SDS011;29414;44.798;20.366;2023-06-22T13:04:35;5.37;;;4.80;;
43793;SDS011;29414;44.798;20.366;2023-06-22T13:08:35;7.97;;;5.33;;
43793;SDS011;29414;44.798;20.366;2023-06-22T13:12:36;5.90;;;4.97;;
43793;SDS011;29414;44.798;20.366;2023-06-22T13:16:36;7.82;;;4.97;;
43793;SDS011;29414;44.798;20.366;2023-06-22T13:20:36;7.17;;;4.83;;
43793;SDS011;29414;44.798;20.366;2023-06-22T13:24:37;4.80;;;4.40;;
43793;SDS011;29414;44.798;20.366;2023-06-22T13:28:37;15.13;;;6.40;;
43793;SDS011;29414;44.798;20.366;2023-06-22T13:32:37;9.98;;;5.60;;
43793;SDS011;29414;44.798;20.366;2023-06-22T13:36:37;6.15;;;5.72;;
43793;SDS011;29414;44.798;20.366;2023-06-22T13:40:38;6.73;;;6.13;;
43793;SDS011;29414;44.798;20.366;2023-06-22T13:44:38;7.50;;;5.70;;
43793;SDS011;29414;44.798;20.366;2023-06-22T13:48:38;7.67;;;5.70;;
43793;SDS011;29414;44.798;20.366;2023-06-22T13:52:39;22.42;;;7.38;;
43793;SDS011;29414;44.798;20.366;2023-06-22T13:56:39;10.43;;;5.85;;
43793;SDS011;29414;44.798;20.366;2023-06-22T14:00:39;8.33;;;6.13;;
43793;SDS011;29414;44.798;20.366;2023-06-22T14:04:39;7.25;;;6.15;;
43793;SDS011;29414;44.798;20.366;2023-06-22T14:08:40;12.48;;;6.40;;
43793;SDS011;29414;44.798;20.366;2023-06-22T14:12:40;8.77;;;5.57;;
43793;SDS011;29414;44.798;20.366;2023-06-22T14:16:40;6.53;;;6.00;;
43793;SDS011;29414;44.798;20.366;2023-06-22T14:20:41;11.53;;;7.00;;
43793;SDS011;29414;44.798;20.366;2023-06-22T14:24:41;8.90;;;7.10;;
43793;SDS011;29414;44.798;20.366;2023-06-22T14:28:41;12.75;;;6.88;;
43793;SDS011;29414;44.798;20.366;2023-06-22T14:32:43;7.88;;;6.50;;
43793;SDS011;29414;44.798;20.366;2023-06-22T14:36:43;10.18;;;6.95;;
43793;SDS011;29414;44.798;20.366;2023-06-22T14:40:43;7.05;;;6.32;;
43793;SDS011;29414;44.798;20.366;2023-06-22T14:44:43;8.53;;;6.80;;
43793;SDS011;29414;44.798;20.366;2023-06-22T14:48:45;9.93;;;6.25;;
43793;SDS011;29414;44.798;20.366;2023-06-22T14:52:45;9.68;;;6.68;;
43793;SDS011;29414;44.798;20.366;2023-06-22T14:56:45;15.30;;;7.05;;
43793;SDS011;29414;44.798;20.366;2023-06-22T15:00:45;12.43;;;6.60;;
43793;SDS011;29414;44.798;20.366;2023-06-22T15:04:46;9.20;;;6.83;;
43793;SDS011;29414;44.798;20.366;2023-06-22T15:08:46;9.95;;;6.47;;
43793;SDS011;29414;44.798;20.366;2023-06-22T15:12:46;8.07;;;6.73;;
43793;SDS011;29414;44.798;20.366;2023-06-22T15:16:47;8.85;;;6.45;;
43793;SDS011;29414;44.798;20.366;2023-06-22T15:20:47;13.45;;;6.90;;
43793;SDS011;29414;44.798;20.366;2023-06-22T15:24:48;7.70;;;6.80;;
43793;SDS011;29414;44.798;20.366;2023-06-22T15:28:48;7.55;;;6.50;;
43793;SDS011;29414;44.798;20.366;2023-06-22T15:32:48;13.95;;;7.30;;
43793;SDS011;29414;44.798;20.366;2023-06-22T15:36:49;9.93;;;6.72;;
43793;SDS011;29414;44.798;20.366;2023-06-22T15:40:49;7.37;;;6.70;;
43793;SDS011;29414;44.798;20.366;2023-06-22T15:44:49;11.10;;;7.07;;
43793;SDS011;29414;44.798;20.366;2023-06-22T15:48:50;9.57;;;6.40;;
43793;SDS011;29414;44.798;20.366;2023-06-22T15:52:50;9.43;;;6.60;;
43793;SDS011;29414;44.798;20.366;2023-06-22T15:56:51;14.15;;;7.18;;
43793;SDS011;29414;44.798;20.366;2023-06-22T16:00:51;8.07;;;7.30;;
43793;SDS011;29414;44.798;20.366;2023-06-22T16:04:52;9.27;;;7.23;;
43793;SDS011;29414;44.798;20.366;2023-06-22T16:08:53;8.23;;;7.05;;
43793;SDS011;29414;44.798;20.366;2023-06-22T16:12:53;10.57;;;6.33;;
43793;SDS011;29414;44.798;20.366;2023-06-22T16:16:53;7.30;;;6.35;;
43793;SDS011;29414;44.798;20.366;2023-06-22T16:20:54;10.02;;;6.18;;
43793;SDS011;29414;44.798;20.366;2023-06-22T16:24:54;8.30;;;6.80;;
43793;SDS011;29414;44.798;20.366;2023-06-22T16:28:55;8.10;;;6.88;;
43793;SDS011;29414;44.798;20.366;2023-06-22T16:32:56;10.47;;;6.53;;
43793;SDS011;29414;44.798;20.366;2023-06-22T16:36:58;8.80;;;6.53;;
43793;SDS011;29414;44.798;20.366;2023-06-22T16:40:58;9.88;;;6.50;;
43793;SDS011;29414;44.798;20.366;2023-06-22T16:44:59;13.00;;;7.30;;
43793;SDS011;29414;44.798;20.366;2023-06-22T16:49:01;11.05;;;6.25;;
43793;SDS011;29414;44.798;20.366;2023-06-22T16:53:01;7.87;;;6.07;;
43793;SDS011;29414;44.798;20.366;2023-06-22T16:57:01;8.13;;;5.93;;
43793;SDS011;29414;44.798;20.366;2023-06-22T17:01:02;11.40;;;6.05;;
43793;SDS011;29414;44.798;20.366;2023-06-22T17:05:03;10.02;;;5.35;;
43793;SDS011;29414;44.798;20.366;2023-06-22T17:09:04;8.40;;;5.68;;
43793;SDS011;29414;44.798;20.366;2023-06-22T17:13:04;5.57;;;4.65;;
43793;SDS011;29414;44.798;20.366;2023-06-22T17:17:05;11.80;;;5.22;;
43793;SDS011;29414;44.798;20.366;2023-06-22T17:21:05;10.40;;;5.70;;
43793;SDS011;29414;44.798;20.366;2023-06-22T17:25:06;10.50;;;5.55;;
43793;SDS011;29414;44.798;20.366;2023-06-22T17:29:08;10.98;;;6.38;;
43793;SDS011;29414;44.798;20.366;2023-06-22T17:33:08;8.82;;;5.75;;
43793;SDS011;29414;44.798;20.366;2023-06-22T17:37:11;7.67;;;5.23;;
43793;SDS011;29414;44.798;20.366;2023-06-22T17:41:12;7.65;;;4.72;;
43793;SDS011;29414;44.798;20.366;2023-06-22T17:45:22;9.70;;;5.00;;
43793;SDS011;29414;44.798;20.366;2023-06-22T17:49:29;9.27;;;5.35;;
43793;SDS011;29414;44.798;20.366;2023-06-22T17:53:29;10.52;;;5.35;;
43793;SDS011;29414;44.798;20.366;2023-06-22T17:57:36;14.03;;;6.07;;
43793;SDS011;29414;44.798;20.366;2023-06-22T18:01:37;10.95;;;5.32;;
43793;SDS011;29414;44.798;20.366;2023-06-22T18:05:38;10.70;;;4.82;;
43793;SDS011;29414;44.798;20.366;2023-06-22T18:09:39;8.38;;;4.72;;
43793;SDS011;29414;44.798;20.366;2023-06-22T18:13:40;7.88;;;5.22;;
43793;SDS011;29414;44.798;20.366;2023-06-22T18:17:41;10.00;;;5.32;;
43793;SDS011;29414;44.798;20.366;2023-06-22T18:21:41;5.93;;;4.57;;
43793;SDS011;29414;44.798;20.366;2023-06-22T18:25:42;10.20;;;4.85;;
43793;SDS011;29414;44.798;20.366;2023-06-22T18:29:49;7.93;;;4.97;;
43793;SDS011;29414;44.798;20.366;2023-06-22T18:33:51;10.77;;;5.25;;
43793;SDS011;29414;44.798;20.366;2023-06-22T18:37:51;13.82;;;5.75;;
43793;SDS011;29414;44.798;20.366;2023-06-22T18:41:52;10.43;;;4.93;;
43793;SDS011;29414;44.798;20.366;2023-06-22T18:45:54;9.50;;;5.78;;
43793;SDS011;29414;44.798;20.366;2023-06-22T18:50:03;7.18;;;4.63;;
43793;SDS011;29414;44.798;20.366;2023-06-22T18:54:04;8.18;;;4.97;;
43793;SDS011;29414;44.798;20.366;2023-06-22T18:58:12;11.07;;;5.60;;
43793;SDS011;29414;44.798;20.366;2023-06-22T19:10:44;8.02;;;5.13;;
43793;SDS011;29414;44.798;20.366;2023-06-22T19:15:03;8.07;;;5.07;;
43793;SDS011;29414;44.798;20.366;2023-06-22T19:19:12;12.82;;;5.43;;
43793;SDS011;29414;44.798;20.366;2023-06-22T19:23:25;10.93;;;5.10;;
43793;SDS011;29414;44.798;20.366;2023-06-22T19:27:29;10.00;;;5.30;;
43793;SDS011;29414;44.798;20.366;2023-06-22T19:31:29;10.40;;;5.53;;
43793;SDS011;29414;44.798;20.366;2023-06-22T19:35:30;9.30;;;5.07;;
43793;SDS011;29414;44.798;20.366;2023-06-22T19:39:34;9.73;;;5.97;;
43793;SDS011;29414;44.798;20.366;2023-06-22T19:43:35;8.93;;;5.30;;
43793;SDS011;29414;44.798;20.366;2023-06-22T19:47:35;12.23;;;4.90;;
43793;SDS011;29414;44.798;20.366;2023-06-22T19:51:36;7.95;;;5.68;;
43793;SDS011;29414;44.798;20.366;2023-06-22T19:55:38;9.23;;;4.97;;
43793;SDS011;29414;44.798;20.366;2023-06-22T19:59:40;8.40;;;5.28;;
43793;SDS011;29414;44.798;20.366;2023-06-22T20:03:41;9.85;;;4.90;;
43793;SDS011;29414;44.798;20.366;2023-06-22T20:07:42;8.80;;;5.10;;
43793;SDS011;29414;44.798;20.366;2023-06-22T20:11:42;11.50;;;6.78;;
43793;SDS011;29414;44.798;20.366;2023-06-22T20:15:43;9.73;;;5.53;;
43793;SDS011;29414;44.798;20.366;2023-06-22T20:19:44;9.75;;;5.03;;
43793;SDS011;29414;44.798;20.366;2023-06-22T20:23:45;9.48;;;5.32;;
43793;SDS011;29414;44.798;20.366;2023-06-22T20:27:45;9.23;;;6.03;;
43793;SDS011;29414;44.798;20.366;2023-06-22T20:31:45;12.73;;;5.43;;
43793;SDS011;29414;44.798;20.366;2023-06-22T20:35:45;14.30;;;5.70;;
43793;SDS011;29414;44.798;20.366;2023-06-22T20:39:49;10.05;;;5.80;;
43793;SDS011;29414;44.798;20.366;2023-06-22T20:43:53;9.27;;;5.90;;
43793;SDS011;29414;44.798;20.366;2023-06-22T20:47:55;9.07;;;5.13;;
43793;SDS011;29414;44.798;20.366;2023-06-22T20:51:55;14.20;;;5.35;;
43793;SDS011;29414;44.798;20.366;2023-06-22T20:55:55;10.98;;;4.70;;
43793;SDS011;29414;44.798;20.366;2023-06-22T20:59:56;10.10;;;5.10;;
43793;SDS011;29414;44.798;20.366;2023-06-22T21:03:56;11.27;;;5.78;;
43793;SDS011;29414;44.798;20.366;2023-06-22T21:07:56;7.43;;;4.80;;
43793;SDS011;29414;44.798;20.366;2023-06-22T21:11:57;10.13;;;5.00;;
43793;SDS011;29414;44.798;20.366;2023-06-22T21:15:58;6.68;;;4.97;;
43793;SDS011;29414;44.798;20.366;2023-06-22T21:19:58;8.95;;;4.43;;
43793;SDS011;29414;44.798;20.366;2023-06-22T21:23:59;12.07;;;6.32;;
43793;SDS011;29414;44.798;20.366;2023-06-22T21:27:59;17.08;;;5.95;;
43793;SDS011;29414;44.798;20.366;2023-06-22T21:31:59;6.82;;;5.53;;
43793;SDS011;29414;44.798;20.366;2023-06-22T21:36:00;8.75;;;6.35;;
43793;SDS011;29414;44.798;20.366;2023-06-22T21:40:00;9.32;;;5.15;;
43793;SDS011;29414;44.798;20.366;2023-06-22T21:44:00;7.72;;;4.63;;
43793;SDS011;29414;44.798;20.366;2023-06-22T21:48:01;11.73;;;6.45;;
43793;SDS011;29414;44.798;20.366;2023-06-22T21:52:01;11.23;;;4.93;;
43793;SDS011;29414;44.798;20.366;2023-06-22T21:56:01;9.13;;;5.47;;
43793;SDS011;29414;44.798;20.366;2023-06-22T22:00:01;13.75;;;6.05;;
43793;SDS011;29414;44.798;20.366;2023-06-22T22:04:05;8.45;;;5.35;;
43793;SDS011;29414;44.798;20.366;2023-06-22T22:08:07;15.30;;;5.88;;
43793;SDS011;29414;44.798;20.366;2023-06-22T22:12:09;12.55;;;5.72;;
43793;SDS011;29414;44.798;20.366;2023-06-22T22:16:09;12.85;;;5.65;;
43793;SDS011;29414;44.798;20.366;2023-06-22T22:20:10;10.07;;;5.32;;
43793;SDS011;29414;44.798;20.366;2023-06-22T22:35:13;10.88;;;8.70;;
43793;SDS011;29414;44.798;20.366;2023-06-22T22:39:20;10.00;;;6.82;;
43793;SDS011;29414;44.798;20.366;2023-06-22T22:43:28;13.27;;;7.95;;
43793;SDS011;29414;44.798;20.366;2023-06-22T22:47:28;11.23;;;7.43;;
43793;SDS011;29414;44.798;20.366;2023-06-22T22:51:29;8.25;;;7.22;;
43793;SDS011;29414;44.798;20.366;2023-06-22T22:55:29;10.18;;;6.85;;
43793;SDS011;29414;44.798;20.366;2023-06-22T22:59:29;11.43;;;7.43;;
43793;SDS011;29414;44.798;20.366;2023-06-22T23:03:30;10.50;;;6.67;;
43793;SDS011;29414;44.798;20.366;2023-06-22T23:07:30;10.75;;;7.25;;
43793;SDS011;29414;44.798;20.366;2023-06-22T23:11:30;9.90;;;6.88;;
43793;SDS011;29414;44.798;20.366;2023-06-22T23:15:31;11.43;;;7.18;;
43793;SDS011;29414;44.798;20.366;2023-06-22T23:19:31;12.77;;;7.90;;
43793;SDS011;29414;44.798;20.366;2023-06-22T23:23:33;9.32;;;6.40;;
43793;SDS011;29414;44.798;20.366;2023-06-22T23:27:34;10.77;;;6.82;;
43793;SDS011;29414;44.798;20.366;2023-06-22T23:31:34;8.23;;;6.67;;
43793;SDS011;29414;44.798;20.366;2023-06-22T23:35:34;8.05;;;7.20;;
43793;SDS011;29414;44.798;20.366;2023-06-22T23:39:36;14.25;;;8.27;;
43793;SDS011;29414;44.798;20.366;2023-06-22T23:43:37;9.85;;;6.15;;
43793;SDS011;29414;44.798;20.366;2023-06-22T23:47:39;12.90;;;6.93;;
43793;SDS011;29414;44.798;20.366;2023-06-22T23:51:39;14.57;;;7.70;;
43793;SDS011;29414;44.798;20.366;2023-06-22T23:55:39;11.07;;;7.05;;
43793;SDS011;29414;44.798;20.366;2023-06-22T23:59:39;10.63;;;8.18;;
